sensor_id;sensor_type;location;lat;lon;timestamp;temperature;humidity
20650;DHT22;10484;48.736;9.332;2022-08-19T00:01:26;23.60;1.00
20650;DHT22;10484;48.736;9.332;2022-08-19T00:03:52;23.60;1.00
20650;DHT22;10484;48.736;9.332;2022-08-19T00:06:18;23.60;1.00
20650;DHT22;10484;48.736;9.332;2022-08-19T00:08:44;23.60;1.00
20650;DHT22;10484;48.736;9.332;2022-08-19T00:11:10;23.60;1.00
20650;DHT22;10484;48.736;9.332;2022-08-19T00:13:36;23.60;1.00
20650;DHT22;10484;48.736;9.332;2022-08-19T00:16:04;23.60;1.00
20650;DHT22;10484;48.736;9.332;2022-08-19T00:18:32;23.50;1.00
20650;DHT22;10484;48.736;9.332;2022-08-19T00:20:57;23.50;1.00
20650;DHT22;10484;48.736;9.332;2022-08-19T00:23:25;23.50;1.00
20650;DHT22;10484;48.736;9.332;2022-08-19T00:25:50;23.50;1.00
20650;DHT22;10484;48.736;9.332;2022-08-19T00:28:17;23.50;1.00
20650;DHT22;10484;48.736;9.332;2022-08-19T00:30:43;23.50;1.00
20650;DHT22;10484;48.736;9.332;2022-08-19T00:33:09;23.40;1.00
20650;DHT22;10484;48.736;9.332;2022-08-19T00:35:35;23.40;1.00
20650;DHT22;10484;48.736;9.332;2022-08-19T00:38:01;23.40;1.00
20650;DHT22;10484;48.736;9.332;2022-08-19T00:40:27;23.40;1.00
20650;DHT22;10484;48.736;9.332;2022-08-19T00:42:52;23.40;1.00
20650;DHT22;10484;48.736;9.332;2022-08-19T00:45:22;23.30;1.00
20650;DHT22;10484;48.736;9.332;2022-08-19T00:47:48;23.30;1.00
20650;DHT22;10484;48.736;9.332;2022-08-19T00:50:17;23.30;1.00
20650;DHT22;10484;48.736;9.332;2022-08-19T00:52:47;23.30;1.00
20650;DHT22;10484;48.736;9.332;2022-08-19T00:55:23;23.20;1.00
20650;DHT22;10484;48.736;9.332;2022-08-19T00:57:57;23.20;1.00
20650;DHT22;10484;48.736;9.332;2022-08-19T01:00:25;23.20;1.00
20650;DHT22;10484;48.736;9.332;2022-08-19T01:02:52;23.20;1.00
20650;DHT22;10484;48.736;9.332;2022-08-19T01:05:27;23.10;1.00
20650;DHT22;10484;48.736;9.332;2022-08-19T01:07:54;23.10;1.00
20650;DHT22;10484;48.736;9.332;2022-08-19T01:10:24;23.10;1.00
20650;DHT22;10484;48.736;9.332;2022-08-19T01:12:51;23.10;1.00
20650;DHT22;10484;48.736;9.332;2022-08-19T01:15:21;23.10;1.00
20650;DHT22;10484;48.736;9.332;2022-08-19T01:17:49;23.00;1.00
20650;DHT22;10484;48.736;9.332;2022-08-19T01:20:18;23.00;1.00
20650;DHT22;10484;48.736;9.332;2022-08-19T01:22:48;23.00;1.00
20650;DHT22;10484;48.736;9.332;2022-08-19T01:25:20;22.90;1.00
20650;DHT22;10484;48.736;9.332;2022-08-19T01:27:49;22.90;1.00
20650;DHT22;10484;48.736;9.332;2022-08-19T01:30:22;22.90;1.00
20650;DHT22;10484;48.736;9.332;2022-08-19T01:32:49;22.90;1.00
20650;DHT22;10484;48.736;9.332;2022-08-19T01:35:16;22.90;1.00
20650;DHT22;10484;48.736;9.332;2022-08-19T01:37:45;22.80;1.00
20650;DHT22;10484;48.736;9.332;2022-08-19T01:40:12;22.80;1.00
20650;DHT22;10484;48.736;9.332;2022-08-19T01:42:38;22.80;1.00
20650;DHT22;10484;48.736;9.332;2022-08-19T01:45:05;22.80;1.00
20650;DHT22;10484;48.736;9.332;2022-08-19T01:47:36;22.80;1.00
20650;DHT22;10484;48.736;9.332;2022-08-19T01:50:04;22.70;1.00
20650;DHT22;10484;48.736;9.332;2022-08-19T01:52:30;22.70;1.00
20650;DHT22;10484;48.736;9.332;2022-08-19T01:54:55;22.70;1.00
20650;DHT22;10484;48.736;9.332;2022-08-19T01:57:21;22.70;1.00
20650;DHT22;10484;48.736;9.332;2022-08-19T01:59:47;22.70;1.00
20650;DHT22;10484;48.736;9.332;2022-08-19T02:02:12;22.70;1.00
20650;DHT22;10484;48.736;9.332;2022-08-19T02:04:39;22.60;1.00
20650;DHT22;10484;48.736;9.332;2022-08-19T02:07:06;22.60;1.00
20650;DHT22;10484;48.736;9.332;2022-08-19T02:09:34;22.60;1.00
20650;DHT22;10484;48.736;9.332;2022-08-19T02:12:00;22.60;1.00
20650;DHT22;10484;48.736;9.332;2022-08-19T02:14:25;22.60;1.00
20650;DHT22;10484;48.736;9.332;2022-08-19T02:16:51;22.50;1.00
20650;DHT22;10484;48.736;9.332;2022-08-19T02:19:17;22.50;1.00
20650;DHT22;10484;48.736;9.332;2022-08-19T02:21:42;22.50;1.00
20650;DHT22;10484;48.736;9.332;2022-08-19T02:24:09;22.50;1.00
20650;DHT22;10484;48.736;9.332;2022-08-19T02:26:34;22.50;1.00
20650;DHT22;10484;48.736;9.332;2022-08-19T02:29:00;22.50;1.00
20650;DHT22;10484;48.736;9.332;2022-08-19T02:31:27;22.40;1.00
20650;DHT22;10484;48.736;9.332;2022-08-19T02:33:54;22.40;1.00
20650;DHT22;10484;48.736;9.332;2022-08-19T02:36:20;22.40;1.00
20650;DHT22;10484;48.736;9.332;2022-08-19T02:38:47;22.40;1.00
20650;DHT22;10484;48.736;9.332;2022-08-19T02:41:22;22.40;1.00
20650;DHT22;10484;48.736;9.332;2022-08-19T02:43:48;22.30;1.00
20650;DHT22;10484;48.736;9.332;2022-08-19T02:46:16;22.30;1.00
20650;DHT22;10484;48.736;9.332;2022-08-19T02:48:50;22.30;1.00
20650;DHT22;10484;48.736;9.332;2022-08-19T02:51:22;22.30;1.00
20650;DHT22;10484;48.736;9.332;2022-08-19T02:53:48;22.30;1.00
20650;DHT22;10484;48.736;9.332;2022-08-19T02:56:14;22.30;1.00
20650;DHT22;10484;48.736;9.332;2022-08-19T02:58:40;22.20;1.00
20650;DHT22;10484;48.736;9.332;2022-08-19T03:01:05;22.20;1.00
20650;DHT22;10484;48.736;9.332;2022-08-19T03:03:31;22.20;1.00
20650;DHT22;10484;48.736;9.332;2022-08-19T03:06:11;22.20;1.00
20650;DHT22;10484;48.736;9.332;2022-08-19T03:08:42;22.20;1.00
20650;DHT22;10484;48.736;9.332;2022-08-19T03:11:16;22.10;1.00
20650;DHT22;10484;48.736;9.332;2022-08-19T03:13:42;22.10;1.00
20650;DHT22;10484;48.736;9.332;2022-08-19T03:16:09;22.10;1.00
20650;DHT22;10484;48.736;9.332;2022-08-19T03:18:34;22.10;1.00
20650;DHT22;10484;48.736;9.332;2022-08-19T03:21:00;22.10;1.00
20650;DHT22;10484;48.736;9.332;2022-08-19T03:23:26;22.10;1.00
20650;DHT22;10484;48.736;9.332;2022-08-19T03:25:53;22.00;1.00
20650;DHT22;10484;48.736;9.332;2022-08-19T03:28:19;22.00;1.00
20650;DHT22;10484;48.736;9.332;2022-08-19T03:31:01;22.00;1.00
20650;DHT22;10484;48.736;9.332;2022-08-19T03:33:27;22.00;1.00
20650;DHT22;10484;48.736;9.332;2022-08-19T03:36:04;22.00;1.00
20650;DHT22;10484;48.736;9.332;2022-08-19T03:38:31;22.00;1.00
20650;DHT22;10484;48.736;9.332;2022-08-19T03:40:57;21.90;1.00
20650;DHT22;10484;48.736;9.332;2022-08-19T03:43:23;21.90;1.00
20650;DHT22;10484;48.736;9.332;2022-08-19T03:46:00;21.90;1.00
20650;DHT22;10484;48.736;9.332;2022-08-19T03:48:25;21.90;1.00
20650;DHT22;10484;48.736;9.332;2022-08-19T03:50:51;21.90;1.00
20650;DHT22;10484;48.736;9.332;2022-08-19T03:53:17;21.90;1.00
20650;DHT22;10484;48.736;9.332;2022-08-19T03:55:42;21.80;1.00
20650;DHT22;10484;48.736;9.332;2022-08-19T03:58:08;21.80;1.00
20650;DHT22;10484;48.736;9.332;2022-08-19T04:00:33;21.80;1.00
20650;DHT22;10484;48.736;9.332;2022-08-19T04:02:59;21.80;1.00
20650;DHT22;10484;48.736;9.332;2022-08-19T04:05:27;21.80;1.00
20650;DHT22;10484;48.736;9.332;2022-08-19T04:07:53;21.80;1.00
20650;DHT22;10484;48.736;9.332;2022-08-19T04:10:24;21.70;1.00
20650;DHT22;10484;48.736;9.332;2022-08-19T04:12:50;21.70;1.00
20650;DHT22;10484;48.736;9.332;2022-08-19T04:15:15;21.70;1.00
20650;DHT22;10484;48.736;9.332;2022-08-19T04:17:41;21.70;1.00
20650;DHT22;10484;48.736;9.332;2022-08-19T04:20:07;21.70;1.00
20650;DHT22;10484;48.736;9.332;2022-08-19T04:22:33;21.60;1.00
20650;DHT22;10484;48.736;9.332;2022-08-19T04:24:58;21.60;1.00
20650;DHT22;10484;48.736;9.332;2022-08-19T04:27:24;21.60;1.00
20650;DHT22;10484;48.736;9.332;2022-08-19T04:29:50;21.60;1.00
20650;DHT22;10484;48.736;9.332;2022-08-19T04:32:15;21.60;1.00
20650;DHT22;10484;48.736;9.332;2022-08-19T04:34:41;21.60;1.00
20650;DHT22;10484;48.736;9.332;2022-08-19T04:37:08;21.60;1.00
20650;DHT22;10484;48.736;9.332;2022-08-19T04:39:37;21.50;1.00
20650;DHT22;10484;48.736;9.332;2022-08-19T04:42:21;21.50;1.00
20650;DHT22;10484;48.736;9.332;2022-08-19T04:45:10;21.50;1.00
20650;DHT22;10484;48.736;9.332;2022-08-19T04:47:37;21.50;1.00
20650;DHT22;10484;48.736;9.332;2022-08-19T04:50:05;21.50;1.00
20650;DHT22;10484;48.736;9.332;2022-08-19T04:52:31;21.50;1.00
20650;DHT22;10484;48.736;9.332;2022-08-19T04:54:57;21.40;1.00
20650;DHT22;10484;48.736;9.332;2022-08-19T04:57:24;21.40;1.00
20650;DHT22;10484;48.736;9.332;2022-08-19T04:59:54;21.40;1.00
20650;DHT22;10484;48.736;9.332;2022-08-19T05:02:20;21.40;1.00
20650;DHT22;10484;48.736;9.332;2022-08-19T05:04:48;21.40;1.00
20650;DHT22;10484;48.736;9.332;2022-08-19T05:07:13;21.40;1.00
20650;DHT22;10484;48.736;9.332;2022-08-19T05:09:39;21.40;1.00
20650;DHT22;10484;48.736;9.332;2022-08-19T05:12:05;21.40;1.00
20650;DHT22;10484;48.736;9.332;2022-08-19T05:14:31;21.30;1.00
20650;DHT22;10484;48.736;9.332;2022-08-19T05:16:57;21.30;1.00
20650;DHT22;10484;48.736;9.332;2022-08-19T05:19:22;21.30;1.00
20650;DHT22;10484;48.736;9.332;2022-08-19T05:22:07;21.30;1.00
20650;DHT22;10484;48.736;9.332;2022-08-19T05:24:51;21.30;1.00
20650;DHT22;10484;48.736;9.332;2022-08-19T05:27:16;21.30;1.00
20650;DHT22;10484;48.736;9.332;2022-08-19T05:29:42;21.30;1.00
20650;DHT22;10484;48.736;9.332;2022-08-19T05:32:08;21.30;1.00
20650;DHT22;10484;48.736;9.332;2022-08-19T05:34:36;21.30;1.00
20650;DHT22;10484;48.736;9.332;2022-08-19T05:37:03;21.30;1.00
20650;DHT22;10484;48.736;9.332;2022-08-19T05:39:32;21.30;1.00
20650;DHT22;10484;48.736;9.332;2022-08-19T05:42:02;21.30;1.00
20650;DHT22;10484;48.736;9.332;2022-08-19T05:44:30;21.30;1.00
20650;DHT22;10484;48.736;9.332;2022-08-19T05:46:57;21.20;1.00
20650;DHT22;10484;48.736;9.332;2022-08-19T05:49:24;21.20;1.00
20650;DHT22;10484;48.736;9.332;2022-08-19T05:51:51;21.20;1.00
20650;DHT22;10484;48.736;9.332;2022-08-19T05:54:17;21.20;1.00
20650;DHT22;10484;48.736;9.332;2022-08-19T05:56:44;21.20;1.00
20650;DHT22;10484;48.736;9.332;2022-08-19T05:59:14;21.20;1.00
20650;DHT22;10484;48.736;9.332;2022-08-19T06:01:42;21.20;1.00
20650;DHT22;10484;48.736;9.332;2022-08-19T06:04:08;21.10;1.00
20650;DHT22;10484;48.736;9.332;2022-08-19T06:06:35;21.10;1.00
20650;DHT22;10484;48.736;9.332;2022-08-19T06:09:02;21.10;1.00
20650;DHT22;10484;48.736;9.332;2022-08-19T06:11:37;21.10;1.00
20650;DHT22;10484;48.736;9.332;2022-08-19T06:14:10;21.10;1.00
20650;DHT22;10484;48.736;9.332;2022-08-19T06:16:37;21.10;1.00
20650;DHT22;10484;48.736;9.332;2022-08-19T06:19:07;21.10;1.00
20650;DHT22;10484;48.736;9.332;2022-08-19T06:21:34;21.10;1.00
20650;DHT22;10484;48.736;9.332;2022-08-19T06:24:02;21.10;1.00
20650;DHT22;10484;48.736;9.332;2022-08-19T06:26:29;21.10;1.00
20650;DHT22;10484;48.736;9.332;2022-08-19T06:28:55;21.10;1.00
20650;DHT22;10484;48.736;9.332;2022-08-19T06:31:24;21.10;1.00
20650;DHT22;10484;48.736;9.332;2022-08-19T06:33:50;21.10;1.00
20650;DHT22;10484;48.736;9.332;2022-08-19T06:36:27;21.10;1.00
20650;DHT22;10484;48.736;9.332;2022-08-19T06:38:57;21.10;1.00
20650;DHT22;10484;48.736;9.332;2022-08-19T06:41:25;21.10;1.00
20650;DHT22;10484;48.736;9.332;2022-08-19T06:43:52;21.10;1.00
20650;DHT22;10484;48.736;9.332;2022-08-19T06:46:18;21.10;1.00
20650;DHT22;10484;48.736;9.332;2022-08-19T06:48:45;21.10;1.00
20650;DHT22;10484;48.736;9.332;2022-08-19T06:51:15;21.10;1.00
20650;DHT22;10484;48.736;9.332;2022-08-19T06:53:45;21.10;1.00
20650;DHT22;10484;48.736;9.332;2022-08-19T06:56:13;21.10;1.00
20650;DHT22;10484;48.736;9.332;2022-08-19T06:58:40;21.10;1.00
20650;DHT22;10484;48.736;9.332;2022-08-19T07:01:06;21.10;1.00
20650;DHT22;10484;48.736;9.332;2022-08-19T07:03:34;21.10;1.00
20650;DHT22;10484;48.736;9.332;2022-08-19T07:06:08;21.10;1.00
20650;DHT22;10484;48.736;9.332;2022-08-19T07:08:35;21.10;1.00
20650;DHT22;10484;48.736;9.332;2022-08-19T07:11:11;21.10;1.00
20650;DHT22;10484;48.736;9.332;2022-08-19T07:13:38;21.10;1.00
20650;DHT22;10484;48.736;9.332;2022-08-19T07:16:05;21.10;1.00
20650;DHT22;10484;48.736;9.332;2022-08-19T07:18:32;21.00;1.00
20650;DHT22;10484;48.736;9.332;2022-08-19T07:21:12;21.00;1.00
20650;DHT22;10484;48.736;9.332;2022-08-19T07:23:39;21.00;1.00
20650;DHT22;10484;48.736;9.332;2022-08-19T07:26:25;21.00;1.00
20650;DHT22;10484;48.736;9.332;2022-08-19T07:28:52;21.00;1.00
20650;DHT22;10484;48.736;9.332;2022-08-19T07:31:22;21.00;1.00
20650;DHT22;10484;48.736;9.332;2022-08-19T07:33:50;21.00;1.00
20650;DHT22;10484;48.736;9.332;2022-08-19T07:36:18;21.00;1.00
20650;DHT22;10484;48.736;9.332;2022-08-19T07:38:47;21.00;1.00
20650;DHT22;10484;48.736;9.332;2022-08-19T07:41:15;21.00;1.00
20650;DHT22;10484;48.736;9.332;2022-08-19T07:43:41;21.00;1.00
20650;DHT22;10484;48.736;9.332;2022-08-19T07:46:10;21.00;1.00
20650;DHT22;10484;48.736;9.332;2022-08-19T07:48:35;21.00;1.00
20650;DHT22;10484;48.736;9.332;2022-08-19T07:51:03;21.00;1.00
20650;DHT22;10484;48.736;9.332;2022-08-19T07:53:31;21.00;1.00
20650;DHT22;10484;48.736;9.332;2022-08-19T07:55:58;21.00;1.00
20650;DHT22;10484;48.736;9.332;2022-08-19T07:58:30;21.00;1.00
20650;DHT22;10484;48.736;9.332;2022-08-19T08:00:56;21.00;1.00
20650;DHT22;10484;48.736;9.332;2022-08-19T08:03:22;21.00;1.00
20650;DHT22;10484;48.736;9.332;2022-08-19T08:06:11;21.00;1.00
20650;DHT22;10484;48.736;9.332;2022-08-19T08:08:57;21.00;1.00
20650;DHT22;10484;48.736;9.332;2022-08-19T08:11:52;21.00;1.00
20650;DHT22;10484;48.736;9.332;2022-08-19T08:14:35;21.00;1.00
20650;DHT22;10484;48.736;9.332;2022-08-19T08:17:02;21.00;1.00
20650;DHT22;10484;48.736;9.332;2022-08-19T08:19:28;21.00;1.00
20650;DHT22;10484;48.736;9.332;2022-08-19T08:21:56;21.00;1.00
20650;DHT22;10484;48.736;9.332;2022-08-19T08:24:24;21.00;1.00
20650;DHT22;10484;48.736;9.332;2022-08-19T08:26:50;21.00;1.00
20650;DHT22;10484;48.736;9.332;2022-08-19T08:29:16;21.00;1.00
20650;DHT22;10484;48.736;9.332;2022-08-19T08:31:43;21.00;1.00
20650;DHT22;10484;48.736;9.332;2022-08-19T08:34:10;21.00;1.00
20650;DHT22;10484;48.736;9.332;2022-08-19T08:36:44;21.00;1.00
20650;DHT22;10484;48.736;9.332;2022-08-19T08:39:16;21.00;1.00
20650;DHT22;10484;48.736;9.332;2022-08-19T08:41:53;21.00;1.00
20650;DHT22;10484;48.736;9.332;2022-08-19T08:44:27;21.00;1.00
20650;DHT22;10484;48.736;9.332;2022-08-19T08:47:01;21.00;1.00
20650;DHT22;10484;48.736;9.332;2022-08-19T08:52:24;21.00;1.00
20650;DHT22;10484;48.736;9.332;2022-08-19T08:54:54;21.00;1.00
20650;DHT22;10484;48.736;9.332;2022-08-19T08:59:54;21.00;1.00
20650;DHT22;10484;48.736;9.332;2022-08-19T09:02:22;21.00;1.00
20650;DHT22;10484;48.736;9.332;2022-08-19T09:04:48;21.00;1.00
20650;DHT22;10484;48.736;9.332;2022-08-19T09:07:18;21.00;1.00
20650;DHT22;10484;48.736;9.332;2022-08-19T09:09:50;21.00;1.00
20650;DHT22;10484;48.736;9.332;2022-08-19T09:12:52;21.00;1.00
20650;DHT22;10484;48.736;9.332;2022-08-19T09:15:29;21.10;1.00
20650;DHT22;10484;48.736;9.332;2022-08-19T09:18:01;21.10;1.00
20650;DHT22;10484;48.736;9.332;2022-08-19T09:20:28;21.10;1.00
20650;DHT22;10484;48.736;9.332;2022-08-19T09:22:56;21.10;1.00
20650;DHT22;10484;48.736;9.332;2022-08-19T09:25:22;21.10;1.00
20650;DHT22;10484;48.736;9.332;2022-08-19T09:27:50;21.10;1.00
20650;DHT22;10484;48.736;9.332;2022-08-19T09:30:21;21.10;1.00
20650;DHT22;10484;48.736;9.332;2022-08-19T09:32:48;21.10;1.00
20650;DHT22;10484;48.736;9.332;2022-08-19T09:35:14;21.10;1.00
20650;DHT22;10484;48.736;9.332;2022-08-19T09:37:41;21.10;1.00
20650;DHT22;10484;48.736;9.332;2022-08-19T09:40:07;21.10;1.00
20650;DHT22;10484;48.736;9.332;2022-08-19T09:42:33;21.10;1.00
20650;DHT22;10484;48.736;9.332;2022-08-19T09:44:59;21.10;1.00
20650;DHT22;10484;48.736;9.332;2022-08-19T09:47:25;21.10;1.00
20650;DHT22;10484;48.736;9.332;2022-08-19T09:49:51;21.10;1.00
20650;DHT22;10484;48.736;9.332;2022-08-19T09:52:16;21.10;1.00
20650;DHT22;10484;48.736;9.332;2022-08-19T09:54:43;21.20;1.00
20650;DHT22;10484;48.736;9.332;2022-08-19T09:57:09;21.20;1.00
20650;DHT22;10484;48.736;9.332;2022-08-19T09:59:35;21.20;1.00
20650;DHT22;10484;48.736;9.332;2022-08-19T10:02:01;21.20;1.00
20650;DHT22;10484;48.736;9.332;2022-08-19T10:04:27;21.10;1.00
20650;DHT22;10484;48.736;9.332;2022-08-19T10:07:12;21.20;1.00
20650;DHT22;10484;48.736;9.332;2022-08-19T10:09:38;21.20;1.00
20650;DHT22;10484;48.736;9.332;2022-08-19T10:12:06;21.20;1.00
20650;DHT22;10484;48.736;9.332;2022-08-19T10:14:33;21.20;1.00
20650;DHT22;10484;48.736;9.332;2022-08-19T10:16:59;21.20;1.00
20650;DHT22;10484;48.736;9.332;2022-08-19T10:19:26;21.20;1.00
20650;DHT22;10484;48.736;9.332;2022-08-19T10:21:53;21.20;1.00
20650;DHT22;10484;48.736;9.332;2022-08-19T10:24:19;21.20;1.00
20650;DHT22;10484;48.736;9.332;2022-08-19T10:26:45;21.20;1.00
20650;DHT22;10484;48.736;9.332;2022-08-19T10:29:13;21.20;1.00
20650;DHT22;10484;48.736;9.332;2022-08-19T10:31:41;21.20;1.00
20650;DHT22;10484;48.736;9.332;2022-08-19T10:34:07;21.20;1.00
20650;DHT22;10484;48.736;9.332;2022-08-19T10:36:35;21.20;1.00
20650;DHT22;10484;48.736;9.332;2022-08-19T10:39:05;21.30;1.00
20650;DHT22;10484;48.736;9.332;2022-08-19T10:41:34;21.20;1.00
20650;DHT22;10484;48.736;9.332;2022-08-19T10:44:05;21.20;1.00
20650;DHT22;10484;48.736;9.332;2022-08-19T10:46:32;21.20;1.00
20650;DHT22;10484;48.736;9.332;2022-08-19T10:49:00;21.30;1.00
20650;DHT22;10484;48.736;9.332;2022-08-19T10:51:26;21.20;1.00
20650;DHT22;10484;48.736;9.332;2022-08-19T10:54:11;21.20;1.00
20650;DHT22;10484;48.736;9.332;2022-08-19T10:56:37;21.30;1.00
20650;DHT22;10484;48.736;9.332;2022-08-19T10:59:24;21.30;1.00
20650;DHT22;10484;48.736;9.332;2022-08-19T11:01:51;21.30;1.00
20650;DHT22;10484;48.736;9.332;2022-08-19T11:04:18;21.30;1.00
20650;DHT22;10484;48.736;9.332;2022-08-19T11:06:48;21.30;1.00
20650;DHT22;10484;48.736;9.332;2022-08-19T11:09:20;21.30;1.00
20650;DHT22;10484;48.736;9.332;2022-08-19T11:11:46;21.20;1.00
20650;DHT22;10484;48.736;9.332;2022-08-19T11:14:17;21.20;1.00
20650;DHT22;10484;48.736;9.332;2022-08-19T11:16:48;21.20;1.00
20650;DHT22;10484;48.736;9.332;2022-08-19T11:19:14;21.30;1.00
20650;DHT22;10484;48.736;9.332;2022-08-19T11:21:44;21.20;1.00
20650;DHT22;10484;48.736;9.332;2022-08-19T11:24:20;21.20;1.00
20650;DHT22;10484;48.736;9.332;2022-08-19T11:26:47;21.30;1.00
20650;DHT22;10484;48.736;9.332;2022-08-19T11:29:15;21.20;1.00
20650;DHT22;10484;48.736;9.332;2022-08-19T11:31:44;21.30;1.00
20650;DHT22;10484;48.736;9.332;2022-08-19T11:34:14;21.20;1.00
20650;DHT22;10484;48.736;9.332;2022-08-19T11:36:44;21.30;1.00
20650;DHT22;10484;48.736;9.332;2022-08-19T11:39:11;21.30;1.00
20650;DHT22;10484;48.736;9.332;2022-08-19T11:41:37;21.20;1.00
20650;DHT22;10484;48.736;9.332;2022-08-19T11:44:04;21.20;1.00
20650;DHT22;10484;48.736;9.332;2022-08-19T11:46:30;21.30;1.00
20650;DHT22;10484;48.736;9.332;2022-08-19T11:48:57;21.30;1.00
20650;DHT22;10484;48.736;9.332;2022-08-19T11:51:25;21.30;1.00
20650;DHT22;10484;48.736;9.332;2022-08-19T11:53:52;21.30;1.00
20650;DHT22;10484;48.736;9.332;2022-08-19T11:56:18;21.30;1.00
20650;DHT22;10484;48.736;9.332;2022-08-19T11:58:44;21.30;1.00
20650;DHT22;10484;48.736;9.332;2022-08-19T12:01:15;21.30;1.00
20650;DHT22;10484;48.736;9.332;2022-08-19T12:03:41;21.30;1.00
20650;DHT22;10484;48.736;9.332;2022-08-19T12:06:13;21.30;1.00
20650;DHT22;10484;48.736;9.332;2022-08-19T12:08:40;21.30;1.00
20650;DHT22;10484;48.736;9.332;2022-08-19T12:11:06;21.30;1.00
20650;DHT22;10484;48.736;9.332;2022-08-19T12:13:37;21.30;1.00
20650;DHT22;10484;48.736;9.332;2022-08-19T12:16:12;21.30;1.00
20650;DHT22;10484;48.736;9.332;2022-08-19T12:18:39;21.30;1.00
20650;DHT22;10484;48.736;9.332;2022-08-19T12:21:22;21.30;1.00
20650;DHT22;10484;48.736;9.332;2022-08-19T12:23:49;21.30;1.00
20650;DHT22;10484;48.736;9.332;2022-08-19T12:26:16;21.30;1.00
20650;DHT22;10484;48.736;9.332;2022-08-19T12:28:42;21.30;1.00
20650;DHT22;10484;48.736;9.332;2022-08-19T12:31:08;21.30;1.00
20650;DHT22;10484;48.736;9.332;2022-08-19T12:33:37;21.30;1.00
20650;DHT22;10484;48.736;9.332;2022-08-19T12:36:04;21.30;1.00
20650;DHT22;10484;48.736;9.332;2022-08-19T12:38:31;21.30;1.00
20650;DHT22;10484;48.736;9.332;2022-08-19T12:40:57;21.30;1.00
20650;DHT22;10484;48.736;9.332;2022-08-19T12:43:23;21.20;1.00
20650;DHT22;10484;48.736;9.332;2022-08-19T12:45:49;21.20;1.00
20650;DHT22;10484;48.736;9.332;2022-08-19T12:48:16;21.10;1.00
20650;DHT22;10484;48.736;9.332;2022-08-19T12:50:43;21.10;1.00
20650;DHT22;10484;48.736;9.332;2022-08-19T12:53:11;21.10;1.00
20650;DHT22;10484;48.736;9.332;2022-08-19T12:55:37;21.10;1.00
20650;DHT22;10484;48.736;9.332;2022-08-19T12:58:03;21.10;1.00
20650;DHT22;10484;48.736;9.332;2022-08-19T13:00:29;21.00;1.00
20650;DHT22;10484;48.736;9.332;2022-08-19T13:02:58;21.00;1.00
20650;DHT22;10484;48.736;9.332;2022-08-19T13:05:27;20.90;1.00
20650;DHT22;10484;48.736;9.332;2022-08-19T13:07:55;20.90;1.00
20650;DHT22;10484;48.736;9.332;2022-08-19T13:10:28;20.90;1.00
20650;DHT22;10484;48.736;9.332;2022-08-19T13:12:55;20.80;1.00
20650;DHT22;10484;48.736;9.332;2022-08-19T13:15:23;20.80;1.00
20650;DHT22;10484;48.736;9.332;2022-08-19T13:17:51;20.80;1.00
20650;DHT22;10484;48.736;9.332;2022-08-19T13:20:19;20.80;1.00
20650;DHT22;10484;48.736;9.332;2022-08-19T13:22:45;20.80;1.00
20650;DHT22;10484;48.736;9.332;2022-08-19T13:25:12;20.80;1.00
20650;DHT22;10484;48.736;9.332;2022-08-19T13:27:38;20.80;1.00
20650;DHT22;10484;48.736;9.332;2022-08-19T13:30:06;20.80;1.00
20650;DHT22;10484;48.736;9.332;2022-08-19T13:32:51;20.80;1.00
20650;DHT22;10484;48.736;9.332;2022-08-19T13:35:35;20.80;1.00
20650;DHT22;10484;48.736;9.332;2022-08-19T13:38:01;20.80;1.00
20650;DHT22;10484;48.736;9.332;2022-08-19T13:40:30;20.80;1.00
20650;DHT22;10484;48.736;9.332;2022-08-19T13:43:00;20.80;1.00
20650;DHT22;10484;48.736;9.332;2022-08-19T13:45:27;20.70;1.00
20650;DHT22;10484;48.736;9.332;2022-08-19T13:47:55;20.80;1.00
20650;DHT22;10484;48.736;9.332;2022-08-19T13:50:25;20.80;1.00
20650;DHT22;10484;48.736;9.332;2022-08-19T13:52:52;20.90;1.00
20650;DHT22;10484;48.736;9.332;2022-08-19T13:55:18;20.80;1.00
20650;DHT22;10484;48.736;9.332;2022-08-19T13:57:44;20.90;1.00
20650;DHT22;10484;48.736;9.332;2022-08-19T14:00:13;20.90;1.00
20650;DHT22;10484;48.736;9.332;2022-08-19T14:02:40;20.90;1.00
20650;DHT22;10484;48.736;9.332;2022-08-19T14:05:08;20.90;1.00
20650;DHT22;10484;48.736;9.332;2022-08-19T14:07:34;20.90;1.00
20650;DHT22;10484;48.736;9.332;2022-08-19T14:10:00;20.90;1.00
20650;DHT22;10484;48.736;9.332;2022-08-19T14:12:25;20.90;1.00
20650;DHT22;10484;48.736;9.332;2022-08-19T14:14:51;20.90;1.00
20650;DHT22;10484;48.736;9.332;2022-08-19T14:17:17;20.90;1.00
20650;DHT22;10484;48.736;9.332;2022-08-19T14:19:43;20.90;1.00
20650;DHT22;10484;48.736;9.332;2022-08-19T14:22:09;20.90;1.00
20650;DHT22;10484;48.736;9.332;2022-08-19T14:24:37;21.00;1.00
20650;DHT22;10484;48.736;9.332;2022-08-19T14:27:03;21.00;1.00
20650;DHT22;10484;48.736;9.332;2022-08-19T14:29:29;21.00;1.00
20650;DHT22;10484;48.736;9.332;2022-08-19T14:31:55;21.00;1.00
20650;DHT22;10484;48.736;9.332;2022-08-19T14:34:25;21.00;1.00
20650;DHT22;10484;48.736;9.332;2022-08-19T14:36:51;20.90;1.00
20650;DHT22;10484;48.736;9.332;2022-08-19T14:39:17;21.00;1.00
20650;DHT22;10484;48.736;9.332;2022-08-19T14:41:43;20.90;1.00
20650;DHT22;10484;48.736;9.332;2022-08-19T14:44:10;20.90;1.00
20650;DHT22;10484;48.736;9.332;2022-08-19T14:46:38;20.90;1.00
20650;DHT22;10484;48.736;9.332;2022-08-19T14:49:03;20.90;1.00
20650;DHT22;10484;48.736;9.332;2022-08-19T14:51:29;20.90;1.00
20650;DHT22;10484;48.736;9.332;2022-08-19T14:53:55;20.90;1.00
20650;DHT22;10484;48.736;9.332;2022-08-19T14:56:24;20.90;1.00
20650;DHT22;10484;48.736;9.332;2022-08-19T14:58:50;20.90;1.00
20650;DHT22;10484;48.736;9.332;2022-08-19T15:01:17;20.90;1.00
20650;DHT22;10484;48.736;9.332;2022-08-19T15:03:45;20.90;1.00
20650;DHT22;10484;48.736;9.332;2022-08-19T15:06:11;20.90;1.00
20650;DHT22;10484;48.736;9.332;2022-08-19T15:08:37;20.90;1.00
20650;DHT22;10484;48.736;9.332;2022-08-19T15:11:12;20.90;1.00
20650;DHT22;10484;48.736;9.332;2022-08-19T15:13:40;20.90;1.00
20650;DHT22;10484;48.736;9.332;2022-08-19T15:16:06;20.90;1.00
20650;DHT22;10484;48.736;9.332;2022-08-19T15:18:32;20.90;1.00
20650;DHT22;10484;48.736;9.332;2022-08-19T15:20:58;20.90;1.00
20650;DHT22;10484;48.736;9.332;2022-08-19T15:23:24;20.90;1.00
20650;DHT22;10484;48.736;9.332;2022-08-19T15:25:50;20.90;1.00
20650;DHT22;10484;48.736;9.332;2022-08-19T15:28:24;20.90;1.00
20650;DHT22;10484;48.736;9.332;2022-08-19T15:30:50;20.90;1.00
20650;DHT22;10484;48.736;9.332;2022-08-19T15:33:16;20.90;1.00
20650;DHT22;10484;48.736;9.332;2022-08-19T15:35:46;20.90;1.00
20650;DHT22;10484;48.736;9.332;2022-08-19T15:38:12;20.90;1.00
20650;DHT22;10484;48.736;9.332;2022-08-19T15:40:40;20.90;1.00
20650;DHT22;10484;48.736;9.332;2022-08-19T15:43:06;20.80;1.00
20650;DHT22;10484;48.736;9.332;2022-08-19T15:45:32;20.80;1.00
20650;DHT22;10484;48.736;9.332;2022-08-19T15:48:02;20.80;1.00
20650;DHT22;10484;48.736;9.332;2022-08-19T15:50:28;20.80;1.00
20650;DHT22;10484;48.736;9.332;2022-08-19T15:52:59;20.80;1.00
20650;DHT22;10484;48.736;9.332;2022-08-19T15:55:28;20.80;1.00
20650;DHT22;10484;48.736;9.332;2022-08-19T15:57:54;20.80;1.00